Praha, Texas
Current Conditions -  °F | °C
As of 1:55 PM on Thursday 23 Oct 2014 (Local Time) from K3T5 Reporting Station
Clear Clear  
Wind Chill: 76°   Ceiling: Unl
Heat Index: 78°   Visibility: 10mi
Dew Point: 60°   Wind: 0mph
Humidity: 56%   Direction: NA
Pressure: 30.09"   Gusts: NA
Location:  29.7626°N, 97.1228°W
Report Text: K3T5 231855Z AUTO 00000KT 10SM CLR 25/15 A3009 RMK AO2 T02460154
Loading
Personal Weather Stations






























Interactive Weather Map
Tropical Storm Tracking
New forecast layout! Learn more

10-Day Weather Forecast

Advertisements
Track Severe Weather on mobile